Airport View

Enter AWOS ICAO identifier for current METAR.

ex. KFNL

K1K1 192055Z AUTO 16008KT 10SM CLR 34/24 A2994 RMK AO2 T03350238

19 Aug 2019 21:18

Frequency: 118.3

Phone: 316-530-6004

Other Area AWOS: KAAO - K3AU - KBEC - KIAB

TAF KIAB 191000Z 1910/2016 VRB06KT 9999 SKC QNH2992INS BECMG 1920/1921 19010G15KT 9999 SKC QNH2987INS TX37/1921Z TN24/1912Z